sensor_id;sensor_type;location;lat;lon;timestamp;pressure;altitude;pressure_sealevel;temperature;humidity
57644;BME280;43474;46.510;6.686;2023-08-17T00:00:12;96503.84;;;26.13;54.17
57644;BME280;43474;46.510;6.686;2023-08-17T00:03:00;96502.28;;;26.12;53.40
57644;BME280;43474;46.510;6.686;2023-08-17T00:05:25;96495.56;;;26.09;53.42
57644;BME280;43474;46.510;6.686;2023-08-17T00:07:52;96498.97;;;26.06;53.73
57644;BME280;43474;46.510;6.686;2023-08-17T00:10:17;96511.56;;;26.11;53.53
57644;BME280;43474;46.510;6.686;2023-08-17T00:12:43;96495.78;;;26.04;52.99
57644;BME280;43474;46.510;6.686;2023-08-17T00:15:09;96514.28;;;26.11;53.36
57644;BME280;43474;46.510;6.686;2023-08-17T00:17:35;96513.81;;;26.09;53.52
57644;BME280;43474;46.510;6.686;2023-08-17T00:20:00;96508.03;;;26.10;53.36
57644;BME280;43474;46.510;6.686;2023-08-17T00:22:26;96504.41;;;26.06;53.65
57644;BME280;43474;46.510;6.686;2023-08-17T00:24:52;96505.31;;;26.10;53.87
57644;BME280;43474;46.510;6.686;2023-08-17T00:27:17;96504.84;;;26.08;53.88
57644;BME280;43474;46.510;6.686;2023-08-17T00:29:43;96492.28;;;26.03;53.91
57644;BME280;43474;46.510;6.686;2023-08-17T00:32:08;96519.72;;;26.11;53.80
57644;BME280;43474;46.510;6.686;2023-08-17T00:34:34;96502.94;;;26.09;54.04
57644;BME280;43474;46.510;6.686;2023-08-17T00:37:00;96491.63;;;26.07;54.44
57644;BME280;43474;46.510;6.686;2023-08-17T00:39:25;96506.44;;;26.09;53.95
57644;BME280;43474;46.510;6.686;2023-08-17T00:41:51;96476.31;;;26.02;53.56
57644;BME280;43474;46.510;6.686;2023-08-17T00:44:16;96493.88;;;26.04;53.74
57644;BME280;43474;46.510;6.686;2023-08-17T00:46:43;96489.56;;;26.03;53.67
57644;BME280;43474;46.510;6.686;2023-08-17T00:49:09;96491.63;;;26.07;53.76
57644;BME280;43474;46.510;6.686;2023-08-17T00:51:35;96487.63;;;26.04;53.50
57644;BME280;43474;46.510;6.686;2023-08-17T00:54:01;96488.13;;;26.06;53.51
57644;BME280;43474;46.510;6.686;2023-08-17T00:56:27;96479.97;;;26.06;53.86
57644;BME280;43474;46.510;6.686;2023-08-17T00:58:53;96479.03;;;26.02;53.54
57644;BME280;43474;46.510;6.686;2023-08-17T01:01:20;96482.47;;;26.11;53.51
57644;BME280;43474;46.510;6.686;2023-08-17T01:03:45;96483.00;;;26.04;54.60
57644;BME280;43474;46.510;6.686;2023-08-17T01:06:11;96484.41;;;26.11;54.46
57644;BME280;43474;46.510;6.686;2023-08-17T01:08:38;96491.72;;;26.10;54.64
57644;BME280;43474;46.510;6.686;2023-08-17T01:11:22;96485.06;;;26.08;55.03
57644;BME280;43474;46.510;6.686;2023-08-17T01:13:56;96489.84;;;26.11;55.07
57644;BME280;43474;46.510;6.686;2023-08-17T01:16:31;96475.66;;;26.05;55.70
57644;BME280;43474;46.510;6.686;2023-08-17T01:19:00;96486.19;;;26.07;55.53
57644;BME280;43474;46.510;6.686;2023-08-17T01:21:35;96487.13;;;26.11;55.83
57644;BME280;43474;46.510;6.686;2023-08-17T01:24:03;96475.97;;;26.03;55.98
57644;BME280;43474;46.510;6.686;2023-08-17T01:26:30;96483.47;;;26.07;55.89
57644;BME280;43474;46.510;6.686;2023-08-17T01:28:55;96491.72;;;26.10;56.01
57644;BME280;43474;46.510;6.686;2023-08-17T01:31:26;96480.75;;;26.07;56.30
57644;BME280;43474;46.510;6.686;2023-08-17T01:33:59;96487.28;;;26.06;56.42
57644;BME280;43474;46.510;6.686;2023-08-17T01:36:40;96485.72;;;26.04;56.65
57644;BME280;43474;46.510;6.686;2023-08-17T01:39:08;96486.97;;;26.07;56.35
57644;BME280;43474;46.510;6.686;2023-08-17T01:41:34;96489.34;;;26.09;56.56
57644;BME280;43474;46.510;6.686;2023-08-17T01:44:02;96488.91;;;26.07;56.91
57644;BME280;43474;46.510;6.686;2023-08-17T01:46:31;96482.34;;;26.08;56.70
57644;BME280;43474;46.510;6.686;2023-08-17T01:48:59;96492.53;;;26.11;56.63
57644;BME280;43474;46.510;6.686;2023-08-17T01:51:25;96490.63;;;26.11;56.46
57644;BME280;43474;46.510;6.686;2023-08-17T01:53:51;96484.41;;;26.11;56.67
57644;BME280;43474;46.510;6.686;2023-08-17T01:56:17;96482.78;;;26.10;56.76
57644;BME280;43474;46.510;6.686;2023-08-17T01:58:43;96470.69;;;26.07;56.44
57644;BME280;43474;46.510;6.686;2023-08-17T02:01:08;96483.47;;;26.07;56.65
57644;BME280;43474;46.510;6.686;2023-08-17T02:03:34;96479.16;;;26.06;56.75
57644;BME280;43474;46.510;6.686;2023-08-17T02:06:00;96461.75;;;26.07;56.60
57644;BME280;43474;46.510;6.686;2023-08-17T02:08:25;96452.69;;;26.02;56.40
57644;BME280;43474;46.510;6.686;2023-08-17T02:10:51;96453.13;;;26.04;56.23
57644;BME280;43474;46.510;6.686;2023-08-17T02:13:18;96458.69;;;26.08;55.28
57644;BME280;43474;46.510;6.686;2023-08-17T02:15:44;96453.25;;;26.08;55.83
57644;BME280;43474;46.510;6.686;2023-08-17T02:18:10;96450.53;;;26.08;55.15
57644;BME280;43474;46.510;6.686;2023-08-17T02:20:36;96443.53;;;26.07;54.89
57644;BME280;43474;46.510;6.686;2023-08-17T02:23:01;96440.81;;;26.07;54.99
57644;BME280;43474;46.510;6.686;2023-08-17T02:25:27;96436.03;;;26.04;54.53
57644;BME280;43474;46.510;6.686;2023-08-17T02:27:59;96420.44;;;26.01;54.42
57644;BME280;43474;46.510;6.686;2023-08-17T02:30:25;96415.78;;;26.01;54.71
57644;BME280;43474;46.510;6.686;2023-08-17T02:32:53;96427.22;;;26.07;54.71
57644;BME280;43474;46.510;6.686;2023-08-17T02:35:19;96424.72;;;26.02;54.41
57644;BME280;43474;46.510;6.686;2023-08-17T02:37:44;96428.69;;;26.04;54.95
57644;BME280;43474;46.510;6.686;2023-08-17T02:40:10;96431.19;;;26.10;54.98
57644;BME280;43474;46.510;6.686;2023-08-17T02:42:36;96428.69;;;26.04;54.71
57644;BME280;43474;46.510;6.686;2023-08-17T02:45:02;96430.25;;;26.06;53.99
57644;BME280;43474;46.510;6.686;2023-08-17T02:47:27;96435.69;;;26.06;54.16
57644;BME280;43474;46.510;6.686;2023-08-17T02:49:53;96433.78;;;26.06;54.61
57644;BME280;43474;46.510;6.686;2023-08-17T02:52:19;96443.66;;;26.11;54.65
57644;BME280;43474;46.510;6.686;2023-08-17T02:54:44;96443.19;;;26.09;55.55
57644;BME280;43474;46.510;6.686;2023-08-17T02:57:10;96434.81;;;26.01;55.56
57644;BME280;43474;46.510;6.686;2023-08-17T02:59:36;96442.72;;;26.07;55.24
57644;BME280;43474;46.510;6.686;2023-08-17T03:02:02;96435.13;;;26.00;55.81
57644;BME280;43474;46.510;6.686;2023-08-17T03:04:27;96444.31;;;26.08;56.07
57644;BME280;43474;46.510;6.686;2023-08-17T03:06:53;96443.97;;;26.09;56.02
57644;BME280;43474;46.510;6.686;2023-08-17T03:09:18;96442.59;;;26.03;56.19
57644;BME280;43474;46.510;6.686;2023-08-17T03:11:44;96433.66;;;26.02;56.07
57644;BME280;43474;46.510;6.686;2023-08-17T03:14:09;96443.84;;;26.06;56.60
57644;BME280;43474;46.510;6.686;2023-08-17T03:16:35;96441.34;;;26.00;56.47
57644;BME280;43474;46.510;6.686;2023-08-17T03:19:01;96450.88;;;26.07;56.50
57644;BME280;43474;46.510;6.686;2023-08-17T03:21:26;96443.53;;;26.07;56.78
57644;BME280;43474;46.510;6.686;2023-08-17T03:23:52;96428.69;;;26.04;56.45
57644;BME280;43474;46.510;6.686;2023-08-17T03:26:17;96434.59;;;26.07;56.45
57644;BME280;43474;46.510;6.686;2023-08-17T03:28:43;96431.88;;;26.07;56.68
57644;BME280;43474;46.510;6.686;2023-08-17T03:31:08;96436.16;;;26.08;56.29
57644;BME280;43474;46.510;6.686;2023-08-17T03:33:35;96443.53;;;26.07;56.60
57644;BME280;43474;46.510;6.686;2023-08-17T03:36:01;96436.03;;;26.04;56.56
57644;BME280;43474;46.510;6.686;2023-08-17T03:38:27;96435.38;;;26.07;57.10
57644;BME280;43474;46.510;6.686;2023-08-17T03:40:52;96434.47;;;26.03;56.68
57644;BME280;43474;46.510;6.686;2023-08-17T03:43:18;96428.22;;;26.02;56.91
57644;BME280;43474;46.510;6.686;2023-08-17T03:45:43;96435.38;;;26.07;57.25
57644;BME280;43474;46.510;6.686;2023-08-17T03:48:09;96431.75;;;26.03;57.39
57644;BME280;43474;46.510;6.686;2023-08-17T03:50:35;96433.31;;;26.04;57.34
57644;BME280;43474;46.510;6.686;2023-08-17T03:53:01;96433.78;;;26.06;57.45
57644;BME280;43474;46.510;6.686;2023-08-17T03:55:26;96430.16;;;26.02;57.38
57644;BME280;43474;46.510;6.686;2023-08-17T03:57:52;96431.75;;;26.03;57.59
57644;BME280;43474;46.510;6.686;2023-08-17T04:00:17;96437.31;;;26.07;57.52
57644;BME280;43474;46.510;6.686;2023-08-17T04:02:43;96438.97;;;25.99;57.31
57644;BME280;43474;46.510;6.686;2023-08-17T04:05:09;96450.09;;;26.06;57.39
57644;BME280;43474;46.510;6.686;2023-08-17T04:07:34;96435.31;;;25.95;57.63
57644;BME280;43474;46.510;6.686;2023-08-17T04:10:00;96443.25;;;26.00;57.64
57644;BME280;43474;46.510;6.686;2023-08-17T04:12:26;96450.31;;;26.01;57.62
57644;BME280;43474;46.510;6.686;2023-08-17T04:14:51;96457.31;;;26.02;57.69
57644;BME280;43474;46.510;6.686;2023-08-17T04:17:17;96464.78;;;26.05;57.93
57644;BME280;43474;46.510;6.686;2023-08-17T04:19:42;96454.13;;;26.00;57.79
57644;BME280;43474;46.510;6.686;2023-08-17T04:22:08;96463.53;;;26.02;57.95
57644;BME280;43474;46.510;6.686;2023-08-17T04:24:33;96458.75;;;25.99;57.95
57644;BME280;43474;46.510;6.686;2023-08-17T04:26:59;96461.16;;;26.01;57.84
57644;BME280;43474;46.510;6.686;2023-08-17T04:29:25;96468.19;;;26.02;58.10
57644;BME280;43474;46.510;6.686;2023-08-17T04:31:51;96473.47;;;25.98;58.22
57644;BME280;43474;46.510;6.686;2023-08-17T04:34:16;96478.91;;;25.98;58.02
57644;BME280;43474;46.510;6.686;2023-08-17T04:36:42;96487.97;;;26.02;57.90
57644;BME280;43474;46.510;6.686;2023-08-17T04:39:07;96484.78;;;26.00;58.05
57644;BME280;43474;46.510;6.686;2023-08-17T04:41:34;96484.78;;;26.00;58.40
57644;BME280;43474;46.510;6.686;2023-08-17T04:44:00;96495.34;;;26.02;58.19
57644;BME280;43474;46.510;6.686;2023-08-17T04:46:26;96498.84;;;26.02;57.96
57644;BME280;43474;46.510;6.686;2023-08-17T04:48:51;96491.25;;;25.96;58.37
57644;BME280;43474;46.510;6.686;2023-08-17T04:51:18;96509.72;;;26.02;58.56
57644;BME280;43474;46.510;6.686;2023-08-17T04:53:43;96510.72;;;25.98;58.42
57644;BME280;43474;46.510;6.686;2023-08-17T04:56:09;96510.72;;;25.98;58.46
57644;BME280;43474;46.510;6.686;2023-08-17T04:58:34;96511.06;;;25.96;58.61
57644;BME280;43474;46.510;6.686;2023-08-17T05:01:00;96522.03;;;26.00;58.35
57644;BME280;43474;46.510;6.686;2023-08-17T05:03:26;96524.63;;;25.96;58.63
57644;BME280;43474;46.510;6.686;2023-08-17T05:05:52;96524.50;;;25.93;58.32
57644;BME280;43474;46.510;6.686;2023-08-17T05:08:18;96527.88;;;25.90;58.49
57644;BME280;43474;46.510;6.686;2023-08-17T05:10:44;96547.22;;;25.88;58.43
57644;BME280;43474;46.510;6.686;2023-08-17T05:13:09;96549.13;;;25.88;58.21
57644;BME280;43474;46.510;6.686;2023-08-17T05:15:35;96544.84;;;25.87;58.44
57644;BME280;43474;46.510;6.686;2023-08-17T05:18:00;96565.28;;;25.84;58.64
57644;BME280;43474;46.510;6.686;2023-08-17T05:20:26;96571.50;;;25.85;58.05
57644;BME280;43474;46.510;6.686;2023-08-17T05:22:51;96576.00;;;25.81;58.69
57644;BME280;43474;46.510;6.686;2023-08-17T05:25:17;96584.78;;;25.86;58.74
57644;BME280;43474;46.510;6.686;2023-08-17T05:27:42;96591.50;;;25.80;58.82
57644;BME280;43474;46.510;6.686;2023-08-17T05:30:08;96596.22;;;25.92;58.67
57644;BME280;43474;46.510;6.686;2023-08-17T05:32:34;96591.09;;;25.90;59.57
57644;BME280;43474;46.510;6.686;2023-08-17T05:34:59;96600.19;;;25.94;60.04
57644;BME280;43474;46.510;6.686;2023-08-17T05:37:25;96595.56;;;25.95;61.57
57644;BME280;43474;46.510;6.686;2023-08-17T05:39:50;96600.09;;;25.91;64.15
57644;BME280;43474;46.510;6.686;2023-08-17T05:42:16;96599.78;;;26.04;64.90
57644;BME280;43474;46.510;6.686;2023-08-17T05:44:42;96596.94;;;26.22;66.83
57644;BME280;43474;46.510;6.686;2023-08-17T05:47:07;96593.31;;;26.18;67.98
57644;BME280;43474;46.510;6.686;2023-08-17T05:49:33;96597.34;;;26.12;68.96
57644;BME280;43474;46.510;6.686;2023-08-17T05:51:58;96596.00;;;26.18;69.40
57644;BME280;43474;46.510;6.686;2023-08-17T05:54:24;96601.78;;;26.16;70.75
57644;BME280;43474;46.510;6.686;2023-08-17T05:56:49;96605.50;;;26.12;71.70
57644;BME280;43474;46.510;6.686;2023-08-17T05:59:15;96604.63;;;26.41;71.79
57644;BME280;43474;46.510;6.686;2023-08-17T06:01:40;96598.88;;;26.42;71.14
57644;BME280;43474;46.510;6.686;2023-08-17T06:04:06;96603.63;;;26.24;72.20
57644;BME280;43474;46.510;6.686;2023-08-17T06:06:32;96610.84;;;26.20;73.17
57644;BME280;43474;46.510;6.686;2023-08-17T06:08:58;96614.75;;;26.32;72.99
57644;BME280;43474;46.510;6.686;2023-08-17T06:11:23;96605.50;;;26.12;73.20
57644;BME280;43474;46.510;6.686;2023-08-17T06:13:49;96610.19;;;26.02;75.08
57644;BME280;43474;46.510;6.686;2023-08-17T06:16:15;96611.84;;;25.95;75.98
57644;BME280;43474;46.510;6.686;2023-08-17T06:18:41;96616.47;;;25.94;76.43
57644;BME280;43474;46.510;6.686;2023-08-17T06:21:07;96615.56;;;25.90;76.79
57644;BME280;43474;46.510;6.686;2023-08-17T06:23:33;96608.88;;;25.88;76.78
57644;BME280;43474;46.510;6.686;2023-08-17T06:25:59;96609.81;;;25.92;77.79
57644;BME280;43474;46.510;6.686;2023-08-17T06:28:26;96619.34;;;25.98;76.81
57644;BME280;43474;46.510;6.686;2023-08-17T06:30:55;96618.75;;;25.92;77.28
57644;BME280;43474;46.510;6.686;2023-08-17T06:33:22;96615.03;;;25.97;77.01
57644;BME280;43474;46.510;6.686;2023-08-17T06:35:48;96617.16;;;25.91;77.45
57644;BME280;43474;46.510;6.686;2023-08-17T06:38:14;96618.25;;;25.90;77.08
57644;BME280;43474;46.510;6.686;2023-08-17T06:40:40;96620.00;;;25.95;76.67
57644;BME280;43474;46.510;6.686;2023-08-17T06:43:06;96630.75;;;25.91;77.17
57644;BME280;43474;46.510;6.686;2023-08-17T06:45:32;96630.13;;;25.86;77.79
57644;BME280;43474;46.510;6.686;2023-08-17T06:47:58;96651.38;;;25.84;78.76
57644;BME280;43474;46.510;6.686;2023-08-17T06:50:24;96647.09;;;25.74;79.27
57644;BME280;43474;46.510;6.686;2023-08-17T06:52:50;96640.63;;;25.66;79.26
57644;BME280;43474;46.510;6.686;2023-08-17T06:55:16;96654.63;;;25.77;79.13
57644;BME280;43474;46.510;6.686;2023-08-17T06:57:42;96654.63;;;25.77;78.93
57644;BME280;43474;46.510;6.686;2023-08-17T07:00:08;96662.88;;;25.81;79.51
57644;BME280;43474;46.510;6.686;2023-08-17T07:02:34;96664.69;;;25.76;79.54
57644;BME280;43474;46.510;6.686;2023-08-17T07:05:00;96667.41;;;25.76;79.96
57644;BME280;43474;46.510;6.686;2023-08-17T07:07:26;96658.13;;;25.77;80.09
57644;BME280;43474;46.510;6.686;2023-08-17T07:09:51;96663.09;;;25.75;80.07
57644;BME280;43474;46.510;6.686;2023-08-17T07:12:17;96669.78;;;25.78;80.70
57644;BME280;43474;46.510;6.686;2023-08-17T07:14:44;96674.44;;;25.77;80.48
57644;BME280;43474;46.510;6.686;2023-08-17T07:17:10;96681.28;;;25.75;80.41
57644;BME280;43474;46.510;6.686;2023-08-17T07:19:35;96682.41;;;25.74;80.73
57644;BME280;43474;46.510;6.686;2023-08-17T07:22:01;96668.25;;;25.60;80.96
57644;BME280;43474;46.510;6.686;2023-08-17T07:24:27;96683.72;;;25.68;80.80
57644;BME280;43474;46.510;6.686;2023-08-17T07:26:52;96685.66;;;25.59;81.05
57644;BME280;43474;46.510;6.686;2023-08-17T07:29:18;96683.91;;;25.63;80.79
57644;BME280;43474;46.510;6.686;2023-08-17T07:31:44;96684.53;;;25.60;81.44
57644;BME280;43474;46.510;6.686;2023-08-17T07:34:10;96689.28;;;25.71;81.29
57644;BME280;43474;46.510;6.686;2023-08-17T07:36:35;96689.47;;;25.66;82.06
57644;BME280;43474;46.510;6.686;2023-08-17T07:39:01;96675.25;;;25.61;82.23
57644;BME280;43474;46.510;6.686;2023-08-17T07:41:27;96677.16;;;25.69;82.92
57644;BME280;43474;46.510;6.686;2023-08-17T07:43:52;96671.88;;;25.72;83.63
57644;BME280;43474;46.510;6.686;2023-08-17T07:46:18;96667.88;;;25.70;84.10
57644;BME280;43474;46.510;6.686;2023-08-17T07:48:43;96662.97;;;25.63;83.72
57644;BME280;43474;46.510;6.686;2023-08-17T07:51:09;96672.88;;;25.59;82.59
57644;BME280;43474;46.510;6.686;2023-08-17T07:53:35;96686.13;;;25.61;82.73
57644;BME280;43474;46.510;6.686;2023-08-17T07:56:01;96677.19;;;25.60;83.02
57644;BME280;43474;46.510;6.686;2023-08-17T07:58:26;96694.91;;;25.66;82.55
57644;BME280;43474;46.510;6.686;2023-08-17T08:00:52;96704.63;;;25.67;81.94
57644;BME280;43474;46.510;6.686;2023-08-17T08:03:18;96701.78;;;25.64;81.99
57644;BME280;43474;46.510;6.686;2023-08-17T08:05:44;96705.63;;;25.63;81.53
57644;BME280;43474;46.510;6.686;2023-08-17T08:08:09;96703.84;;;25.67;80.89
57644;BME280;43474;46.510;6.686;2023-08-17T08:10:35;96701.44;;;25.65;81.81
57644;BME280;43474;46.510;6.686;2023-08-17T08:13:00;96691.25;;;25.62;81.66
57644;BME280;43474;46.510;6.686;2023-08-17T08:15:26;96693.78;;;25.67;82.16
57644;BME280;43474;46.510;6.686;2023-08-17T08:17:51;96681.34;;;25.66;81.03
57644;BME280;43474;46.510;6.686;2023-08-17T08:20:17;96677.53;;;25.59;77.20
57644;BME280;43474;46.510;6.686;2023-08-17T08:22:43;96673.88;;;25.55;75.11
57644;BME280;43474;46.510;6.686;2023-08-17T08:25:08;96673.56;;;25.56;73.96
57644;BME280;43474;46.510;6.686;2023-08-17T08:27:34;96674.47;;;25.60;73.40
57644;BME280;43474;46.510;6.686;2023-08-17T08:29:59;96663.44;;;25.65;73.46
57644;BME280;43474;46.510;6.686;2023-08-17T08:32:25;96653.88;;;25.59;72.84
57644;BME280;43474;46.510;6.686;2023-08-17T08:34:50;96658.06;;;25.57;72.75
57644;BME280;43474;46.510;6.686;2023-08-17T08:37:16;96657.09;;;25.61;73.09
57644;BME280;43474;46.510;6.686;2023-08-17T08:39:52;96658.69;;;25.62;72.97
57644;BME280;43474;46.510;6.686;2023-08-17T08:42:19;96663.56;;;25.69;72.98
57644;BME280;43474;46.510;6.686;2023-08-17T08:44:45;96669.66;;;25.66;72.84
57644;BME280;43474;46.510;6.686;2023-08-17T08:47:11;96671.91;;;25.64;72.86
57644;BME280;43474;46.510;6.686;2023-08-17T08:49:39;96667.59;;;25.63;72.82
57644;BME280;43474;46.510;6.686;2023-08-17T08:52:12;96642.44;;;25.53;73.67
57644;BME280;43474;46.510;6.686;2023-08-17T08:54:41;96642.25;;;25.59;74.02
57644;BME280;43474;46.510;6.686;2023-08-17T08:57:09;96654.50;;;25.65;74.00
57644;BME280;43474;46.510;6.686;2023-08-17T08:59:39;96657.22;;;25.65;74.24
57644;BME280;43474;46.510;6.686;2023-08-17T09:02:12;96656.09;;;25.66;74.45
57644;BME280;43474;46.510;6.686;2023-08-17T09:04:39;96652.91;;;25.64;74.55
57644;BME280;43474;46.510;6.686;2023-08-17T09:07:06;96649.59;;;25.58;74.67
57644;BME280;43474;46.510;6.686;2023-08-17T09:09:32;96634.44;;;25.57;74.34
57644;BME280;43474;46.510;6.686;2023-08-17T09:11:59;96632.38;;;25.54;75.13
57644;BME280;43474;46.510;6.686;2023-08-17T09:14:24;96639.97;;;25.61;75.02
57644;BME280;43474;46.510;6.686;2023-08-17T09:16:50;96642.50;;;25.66;75.19
57644;BME280;43474;46.510;6.686;2023-08-17T09:19:16;96633.38;;;25.70;75.95
57644;BME280;43474;46.510;6.686;2023-08-17T09:21:42;96632.28;;;25.71;76.01
57644;BME280;43474;46.510;6.686;2023-08-17T09:24:08;96640.88;;;25.73;75.53
57644;BME280;43474;46.510;6.686;2023-08-17T09:26:34;96632.94;;;25.68;75.25
57644;BME280;43474;46.510;6.686;2023-08-17T09:28:59;96634.84;;;25.68;75.61
57644;BME280;43474;46.510;6.686;2023-08-17T09:31:25;96633.38;;;25.70;75.60
57644;BME280;43474;46.510;6.686;2023-08-17T09:33:51;96625.13;;;25.67;76.85
57644;BME280;43474;46.510;6.686;2023-08-17T09:36:24;96634.19;;;25.71;77.36
57644;BME280;43474;46.510;6.686;2023-08-17T09:38:51;96627.16;;;25.70;76.78
57644;BME280;43474;46.510;6.686;2023-08-17T09:41:20;96633.38;;;25.70;76.10
57644;BME280;43474;46.510;6.686;2023-08-17T09:43:46;96636.03;;;25.58;75.68
57644;BME280;43474;46.510;6.686;2023-08-17T09:46:12;96632.03;;;25.56;76.05
57644;BME280;43474;46.510;6.686;2023-08-17T09:48:38;96626.59;;;25.56;75.88
57644;BME280;43474;46.510;6.686;2023-08-17T09:51:05;96612.91;;;25.52;76.25
57644;BME280;43474;46.510;6.686;2023-08-17T09:53:35;96617.03;;;25.58;76.61
57644;BME280;43474;46.510;6.686;2023-08-17T09:56:02;96614.56;;;25.65;76.90
57644;BME280;43474;46.510;6.686;2023-08-17T09:58:27;96615.69;;;25.64;77.23
57644;BME280;43474;46.510;6.686;2023-08-17T10:00:53;96620.00;;;25.65;78.15
57644;BME280;43474;46.510;6.686;2023-08-17T10:03:19;96610.28;;;25.64;78.32
57644;BME280;43474;46.510;6.686;2023-08-17T10:05:50;96600.34;;;25.68;77.98
57644;BME280;43474;46.510;6.686;2023-08-17T10:08:22;96589.84;;;25.67;77.89
57644;BME280;43474;46.510;6.686;2023-08-17T10:10:49;96587.56;;;25.69;78.00
57644;BME280;43474;46.510;6.686;2023-08-17T10:14:33;96588.34;;;25.69;79.30
57644;BME280;43474;46.510;6.686;2023-08-17T10:16:44;96569.84;;;25.71;79.57
57644;BME280;43474;46.510;6.686;2023-08-17T10:19:25;96583.56;;;25.75;80.43
57644;BME280;43474;46.510;6.686;2023-08-17T10:22:05;96573.34;;;25.72;79.48
57644;BME280;43474;46.510;6.686;2023-08-17T10:24:34;96582.47;;;25.67;78.58
57644;BME280;43474;46.510;6.686;2023-08-17T10:27:03;96576.91;;;25.64;78.35
57644;BME280;43474;46.510;6.686;2023-08-17T10:29:30;96574.97;;;25.64;78.42
57644;BME280;43474;46.510;6.686;2023-08-17T10:31:57;96570.22;;;25.61;77.84
57644;BME280;43474;46.510;6.686;2023-08-17T10:34:22;96566.25;;;25.59;77.43
57644;BME280;43474;46.510;6.686;2023-08-17T10:36:49;96565.44;;;25.58;78.04
57644;BME280;43474;46.510;6.686;2023-08-17T10:39:22;96558.09;;;25.59;77.38
57644;BME280;43474;46.510;6.686;2023-08-17T10:41:49;96554.94;;;25.57;77.20
57644;BME280;43474;46.510;6.686;2023-08-17T10:44:17;96561.00;;;25.53;76.89
57644;BME280;43474;46.510;6.686;2023-08-17T10:46:43;96550.59;;;25.56;76.93
57644;BME280;43474;46.510;6.686;2023-08-17T10:49:26;96550.91;;;25.63;76.77
57644;BME280;43474;46.510;6.686;2023-08-17T10:52:03;96547.59;;;25.57;76.66
57644;BME280;43474;46.510;6.686;2023-08-17T10:54:39;96549.41;;;25.65;76.90
57644;BME280;43474;46.510;6.686;2023-08-17T10:57:27;96546.50;;;25.70;76.74
57644;BME280;43474;46.510;6.686;2023-08-17T11:00:22;96542.22;;;25.69;75.82
57644;BME280;43474;46.510;6.686;2023-08-17T11:05:42;96519.19;;;25.75;75.62
57644;BME280;43474;46.510;6.686;2023-08-17T11:08:10;96514.84;;;25.83;74.77
57644;BME280;43474;46.510;6.686;2023-08-17T11:10:36;96513.69;;;25.84;75.12
57644;BME280;43474;46.510;6.686;2023-08-17T11:13:04;96506.03;;;25.86;74.98
57644;BME280;43474;46.510;6.686;2023-08-17T11:15:37;96514.97;;;25.87;74.36
57644;BME280;43474;46.510;6.686;2023-08-17T11:18:05;96500.66;;;25.77;73.56
57644;BME280;43474;46.510;6.686;2023-08-17T11:20:31;96510.63;;;25.86;73.44
57644;BME280;43474;46.510;6.686;2023-08-17T11:22:58;96504.91;;;25.87;73.69
57644;BME280;43474;46.510;6.686;2023-08-17T11:25:25;96509.06;;;25.85;72.13
57644;BME280;43474;46.510;6.686;2023-08-17T11:27:52;96502.44;;;25.73;71.72
57644;BME280;43474;46.510;6.686;2023-08-17T11:30:17;96501.91;;;25.80;71.39
57644;BME280;43474;46.510;6.686;2023-08-17T11:32:43;96495.25;;;25.77;71.76
57644;BME280;43474;46.510;6.686;2023-08-17T11:35:09;96496.97;;;25.82;71.61
57644;BME280;43474;46.510;6.686;2023-08-17T11:37:34;96503.97;;;25.83;71.45
57644;BME280;43474;46.510;6.686;2023-08-17T11:40:00;96488.03;;;25.82;71.65
57644;BME280;43474;46.510;6.686;2023-08-17T11:42:25;96500.91;;;25.85;71.76
57644;BME280;43474;46.510;6.686;2023-08-17T11:44:51;96491.06;;;25.80;71.85
57644;BME280;43474;46.510;6.686;2023-08-17T11:47:16;96496.63;;;25.84;72.10
57644;BME280;43474;46.510;6.686;2023-08-17T11:49:42;96492.13;;;25.88;72.37
57644;BME280;43474;46.510;6.686;2023-08-17T11:52:11;96486.22;;;25.86;72.95
57644;BME280;43474;46.510;6.686;2023-08-17T11:54:40;96484.31;;;25.86;72.52
57644;BME280;43474;46.510;6.686;2023-08-17T11:57:05;96491.47;;;25.91;72.54
57644;BME280;43474;46.510;6.686;2023-08-17T11:59:31;96485.91;;;25.87;72.26
57644;BME280;43474;46.510;6.686;2023-08-17T12:01:59;96480.59;;;25.91;72.54
57644;BME280;43474;46.510;6.686;2023-08-17T12:04:26;96480.91;;;25.89;72.65
57644;BME280;43474;46.510;6.686;2023-08-17T12:06:52;96474.81;;;25.92;72.33
57644;BME280;43474;46.510;6.686;2023-08-17T12:09:18;96480.59;;;25.91;72.34
57644;BME280;43474;46.510;6.686;2023-08-17T12:11:47;96471.63;;;25.90;72.48
57644;BME280;43474;46.510;6.686;2023-08-17T12:14:13;96471.41;;;25.95;72.76
57644;BME280;43474;46.510;6.686;2023-08-17T12:16:48;96468.69;;;25.95;72.77
57644;BME280;43474;46.510;6.686;2023-08-17T12:19:14;96478.13;;;25.98;72.32
57644;BME280;43474;46.510;6.686;2023-08-17T12:21:43;96459.31;;;25.93;72.49
57644;BME280;43474;46.510;6.686;2023-08-17T12:24:09;96463.97;;;25.92;72.68
57644;BME280;43474;46.510;6.686;2023-08-17T12:26:43;96458.66;;;25.96;72.76
57644;BME280;43474;46.510;6.686;2023-08-17T12:29:09;96458.66;;;25.96;72.56
57644;BME280;43474;46.510;6.686;2023-08-17T12:31:35;96457.06;;;25.95;72.94
57644;BME280;43474;46.510;6.686;2023-08-17T12:34:01;96460.34;;;26.00;72.70
57644;BME280;43474;46.510;6.686;2023-08-17T12:36:27;96443.03;;;25.93;72.45
57644;BME280;43474;46.510;6.686;2023-08-17T12:38:52;96456.41;;;25.98;72.43
57644;BME280;43474;46.510;6.686;2023-08-17T12:41:18;96449.25;;;25.93;72.69
57644;BME280;43474;46.510;6.686;2023-08-17T12:43:44;96447.81;;;25.96;72.50
57644;BME280;43474;46.510;6.686;2023-08-17T12:46:09;96469.31;;;26.01;72.61
57644;BME280;43474;46.510;6.686;2023-08-17T12:48:37;96462.28;;;26.00;72.35
57644;BME280;43474;46.510;6.686;2023-08-17T12:51:03;96470.09;;;26.01;72.62
57644;BME280;43474;46.510;6.686;2023-08-17T12:53:28;96457.31;;;26.02;72.52
57644;BME280;43474;46.510;6.686;2023-08-17T12:55:54;96450.97;;;25.98;72.52
57644;BME280;43474;46.510;6.686;2023-08-17T12:58:20;96450.97;;;25.98;72.54
57644;BME280;43474;46.510;6.686;2023-08-17T13:00:45;96449.47;;;26.00;72.56